Time;durP1;ratioP1;P1;durP2;ratioP2;P2;SDS_P1;SDS_P2;PMS_P1;PMS_P2;Temp;Humidity;BMP_temperature;BMP_pressure;BME280_temperature;BME280_humidity;BME280_pressure;Samples;Min_cycle;Max_cycle;Signal;HPM_P1;HPM_P2
2022/07/15 00:02:19;;;;;;;13.17;2.57;;;;;;;;;;5031639;28;20202;-85
2022/07/15 00:04:47;;;;;;;1.60;1.50;;;;;;;;;;5031744;28;20599;-84
2022/07/15 00:07:14;;;;;;;9.67;2.47;;;;;;;;;;5031853;28;20643;-84
2022/07/15 00:12:27;;;;;;;1.60;1.50;;;;;;;;;;5032241;28;20719;-84
2022/07/15 00:14:54;;;;;;;2.70;1.50;;;;;;;;;;5014362;28;20203;-83
2022/07/15 00:17:22;;;;;;;4.33;1.73;;;;;;;;;;5031872;28;20613;-83
2022/07/15 00:19:49;;;;;;;1.70;1.60;;;;;;;;;;5031924;28;20213;-84
2022/07/15 00:22:16;;;;;;;1.63;1.53;;;;;;;;;;5013989;28;20199;-84
2022/07/15 00:24:44;;;;;;;3.93;1.70;;;;;;;;;;5031620;28;20210;-83
2022/07/15 00:27:11;;;;;;;2.20;1.40;;;;;;;;;;5031656;28;20211;-83
2022/07/15 00:29:39;;;;;;;8.03;2.50;;;;;;;;;;5013711;28;20693;-84
2022/07/15 00:32:06;;;;;;;1.50;1.40;;;;;;;;;;5013971;28;20206;-84
2022/07/15 00:34:33;;;;;;;1.80;1.70;;;;;;;;;;4997505;28;20206;-83
2022/07/15 00:37:00;;;;;;;1.60;1.50;;;;;;;;;;5013652;28;20230;-84
2022/07/15 00:39:27;;;;;;;1.73;1.63;;;;;;;;;;4997080;28;20680;-84
2022/07/15 00:41:56;;;;;;;1.53;1.43;;;;;;;;;;5031530;28;20214;-84
2022/07/15 00:44:23;;;;;;;2.10;1.53;;;;;;;;;;5031186;28;20206;-83
2022/07/15 00:46:50;;;;;;;1.80;1.70;;;;;;;;;;5030960;28;20705;-84
2022/07/15 00:49:18;;;;;;;129.23;15.93;;;;;;;;;;5014275;28;20198;-83
2022/07/15 00:51:47;;;;;;;21.13;2.87;;;;;;;;;;5030127;28;20229;-83
2022/07/15 00:54:16;;;;;;;1196.83;146.63;;;;;;;;;;5013094;28;20202;-83
2022/07/15 00:56:47;;;;;;;64.17;8.03;;;;;;;;;;5013121;28;20280;-83
2022/07/15 00:59:16;;;;;;;7.57;1.73;;;;;;;;;;5013445;28;20210;-83
2022/07/15 01:01:44;;;;;;;1.67;1.50;;;;;;;;;;5012922;28;20221;-82
2022/07/15 01:04:13;;;;;;;1.83;1.47;;;;;;;;;;5030730;28;20293;-83
2022/07/15 01:06:40;;;;;;;2.03;1.53;;;;;;;;;;5030300;28;20198;-82
2022/07/15 01:09:08;;;;;;;13.33;2.37;;;;;;;;;;4997330;28;20329;-82
2022/07/15 01:11:35;;;;;;;2.20;1.77;;;;;;;;;;5030556;28;20227;-84
2022/07/15 01:14:04;;;;;;;1.40;1.30;;;;;;;;;;5013547;28;20632;-84
2022/07/15 01:16:33;;;;;;;1.80;1.70;;;;;;;;;;5030861;28;20298;-84
2022/07/15 01:19:00;;;;;;;1.67;1.57;;;;;;;;;;5030508;28;20214;-84
2022/07/15 01:21:29;;;;;;;7.30;2.20;;;;;;;;;;4997360;28;20206;-84
2022/07/15 01:23:56;;;;;;;7.40;2.83;;;;;;;;;;5030762;28;20310;-85
2022/07/15 01:26:23;;;;;;;2.13;1.97;;;;;;;;;;5030487;28;20210;-84
2022/07/15 01:28:50;;;;;;;1.97;1.77;;;;;;;;;;5031219;28;20210;-84
2022/07/15 01:31:17;;;;;;;3.53;1.60;;;;;;;;;;5030293;28;20226;-85
2022/07/15 01:33:45;;;;;;;4.47;1.80;;;;;;;;;;5013120;28;20210;-85
2022/07/15 01:36:12;;;;;;;1.80;1.70;;;;;;;;;;5013200;28;20252;-85
2022/07/15 01:38:40;;;;;;;7.33;2.03;;;;;;;;;;5030629;28;20203;-83
2022/07/15 01:41:07;;;;;;;3.67;1.70;;;;;;;;;;5013366;28;20213;-82
2022/07/15 01:43:34;;;;;;;4.03;1.83;;;;;;;;;;5030698;28;20202;-84
2022/07/15 01:46:01;;;;;;;4.77;1.80;;;;;;;;;;5013199;28;20210;-83
2022/07/15 01:51:13;;;;;;;1.90;1.80;;;;;;;;;;5015728;28;20206;-84
2022/07/15 01:53:41;;;;;;;2.30;1.70;;;;;;;;;;5030696;28;20728;-84
2022/07/15 01:56:09;;;;;;;2.97;1.67;;;;;;;;;;5012895;28;20203;-84
2022/07/15 01:58:36;;;;;;;3.27;1.83;;;;;;;;;;5012960;28;20233;-84
2022/07/15 02:01:03;;;;;;;1.70;1.57;;;;;;;;;;5030592;28;20676;-84
2022/07/15 02:03:30;;;;;;;1.70;1.60;;;;;;;;;;4996801;28;20211;-85
2022/07/15 02:05:57;;;;;;;2.07;1.90;;;;;;;;;;5013791;28;20198;-84
2022/07/15 02:08:24;;;;;;;2.37;1.63;;;;;;;;;;5016950;28;20627;-84
2022/07/15 02:10:53;;;;;;;2.97;1.67;;;;;;;;;;5034135;28;20239;-83
2022/07/15 02:13:21;;;;;;;1.63;1.53;;;;;;;;;;5033819;28;20218;-85
2022/07/15 02:15:49;;;;;;;2.70;2.00;;;;;;;;;;5001333;28;20202;-85
2022/07/15 02:18:16;;;;;;;1.97;1.87;;;;;;;;;;5016864;28;20241;-85
2022/07/15 02:20:43;;;;;;;12.77;2.63;;;;;;;;;;5016938;28;20202;-84
2022/07/15 02:23:10;;;;;;;5.30;2.03;;;;;;;;;;5033906;28;20632;-84
2022/07/15 02:25:37;;;;;;;2.37;1.67;;;;;;;;;;5016166;28;20685;-85
2022/07/15 02:28:07;;;;;;;1.93;1.70;;;;;;;;;;5033884;28;20210;-83
2022/07/15 02:30:36;;;;;;;1.80;1.70;;;;;;;;;;5033664;28;20241;-83
2022/07/15 02:33:04;;;;;;;2.00;1.90;;;;;;;;;;5016043;28;20207;-84
2022/07/15 02:35:32;;;;;;;1.50;1.40;;;;;;;;;;5016112;28;20217;-84
2022/07/15 02:38:00;;;;;;;5.93;1.97;;;;;;;;;;5033159;28;20728;-84
2022/07/15 02:40:27;;;;;;;1.80;1.57;;;;;;;;;;5033402;28;20662;-84
2022/07/15 02:42:56;;;;;;;1.60;1.50;;;;;;;;;;5016152;28;20206;-84
2022/07/15 02:45:26;;;;;;;1.83;1.73;;;;;;;;;;5015752;28;20615;-83
2022/07/15 02:47:53;;;;;;;2.50;1.73;;;;;;;;;;5033294;28;20217;-83
2022/07/15 02:50:22;;;;;;;1.60;1.50;;;;;;;;;;5015408;28;20651;-83
2022/07/15 02:52:49;;;;;;;3.07;1.77;;;;;;;;;;5013408;28;20289;-81
2022/07/15 02:55:17;;;;;;;4.93;1.93;;;;;;;;;;5015412;28;20265;-83
2022/07/15 02:57:45;;;;;;;3.43;1.70;;;;;;;;;;5015066;28;20284;-83
2022/07/15 03:00:14;;;;;;;3.13;1.83;;;;;;;;;;5032796;28;20205;-83
2022/07/15 03:02:43;;;;;;;3.10;1.70;;;;;;;;;;5033419;28;20221;-83
2022/07/15 03:05:11;;;;;;;3.23;2.07;;;;;;;;;;5015178;28;20221;-83
2022/07/15 03:07:38;;;;;;;3.93;2.00;;;;;;;;;;5032492;28;20211;-83
2022/07/15 03:10:06;;;;;;;2.90;1.90;;;;;;;;;;5015330;28;20210;-83
2022/07/15 03:12:33;;;;;;;1.57;1.47;;;;;;;;;;5014786;28;20231;-83
2022/07/15 03:15:03;;;;;;;3.43;1.60;;;;;;;;;;4998853;28;20214;-84
2022/07/15 03:17:30;;;;;;;2.10;2.00;;;;;;;;;;5014520;28;20234;-83
2022/07/15 03:19:59;;;;;;;2.27;1.70;;;;;;;;;;5032439;28;20639;-83
2022/07/15 03:22:27;;;;;;;1.80;1.70;;;;;;;;;;5014955;28;20211;-83
2022/07/15 03:24:55;;;;;;;1.73;1.63;;;;;;;;;;5032070;28;20787;-81
2022/07/15 03:27:23;;;;;;;2.30;1.90;;;;;;;;;;5032467;28;20643;-83
2022/07/15 03:29:50;;;;;;;1.50;1.40;;;;;;;;;;5015341;28;20202;-83
2022/07/15 03:32:19;;;;;;;4.07;2.47;;;;;;;;;;5032056;28;20252;-83
2022/07/15 03:34:46;;;;;;;3.83;1.83;;;;;;;;;;5015098;28;20214;-83
2022/07/15 03:37:15;;;;;;;2.33;2.13;;;;;;;;;;5031791;28;20229;-83
2022/07/15 03:39:49;;;;;;;1.90;1.80;;;;;;;;;;5015520;28;20295;-81
2022/07/15 03:42:16;;;;;;;3.27;2.13;;;;;;;;;;5032833;28;20213;-83
2022/07/15 03:44:43;;;;;;;1.90;1.70;;;;;;;;;;5032235;28;20680;-83
2022/07/15 03:47:10;;;;;;;3.50;2.23;;;;;;;;;;4998280;28;20224;-84
2022/07/15 03:49:38;;;;;;;2.90;2.53;;;;;;;;;;5014346;28;20203;-84
2022/07/15 03:52:06;;;;;;;7.37;2.70;;;;;;;;;;4998189;28;20206;-84
2022/07/15 03:54:34;;;;;;;3.80;2.33;;;;;;;;;;4998395;28;20212;-85
2022/07/15 03:57:01;;;;;;;5.97;3.17;;;;;;;;;;5032092;28;20206;-84
2022/07/15 03:59:28;;;;;;;4.27;1.80;;;;;;;;;;5031648;28;20625;-84
2022/07/15 04:01:56;;;;;;;3.00;2.03;;;;;;;;;;5031934;28;20211;-85
2022/07/15 04:04:23;;;;;;;1.93;1.83;;;;;;;;;;5031830;28;20763;-84
2022/07/15 04:06:51;;;;;;;2.07;1.73;;;;;;;;;;5014542;28;20218;-84
2022/07/15 04:09:18;;;;;;;4.07;1.70;;;;;;;;;;4998115;28;20687;-84
2022/07/15 04:11:47;;;;;;;5.00;1.70;;;;;;;;;;5013628;28;20230;-83
2022/07/15 04:14:15;;;;;;;1.97;1.80;;;;;;;;;;5029590;28;20629;-78
2022/07/15 04:16:42;;;;;;;2.00;1.80;;;;;;;;;;5029960;28;20207;-77
2022/07/15 04:19:09;;;;;;;2.10;1.90;;;;;;;;;;5031575;28;20226;-77
2022/07/15 04:21:36;;;;;;;1.63;1.53;;;;;;;;;;5031344;28;20202;-78
2022/07/15 04:24:04;;;;;;;2.73;1.97;;;;;;;;;;5030142;28;20233;-78
2022/07/15 04:26:31;;;;;;;10.37;2.50;;;;;;;;;;5030751;28;20636;-78
2022/07/15 04:28:59;;;;;;;2.10;1.90;;;;;;;;;;5031213;28;20214;-78
2022/07/15 04:31:26;;;;;;;3.23;1.90;;;;;;;;;;5029433;28;20210;-77
2022/07/15 04:33:53;;;;;;;3.90;1.80;;;;;;;;;;5031409;28;20255;-78
2022/07/15 04:36:20;;;;;;;3.03;1.80;;;;;;;;;;5031083;28;20747;-78
2022/07/15 04:38:47;;;;;;;2.40;1.50;;;;;;;;;;5029974;28;20223;-78
2022/07/15 04:41:14;;;;;;;5.90;1.60;;;;;;;;;;5029543;28;20203;-78
2022/07/15 04:43:42;;;;;;;3.17;1.87;;;;;;;;;;5030101;28;21030;-77
2022/07/15 04:46:10;;;;;;;3.17;1.80;;;;;;;;;;5004652;28;20210;-78
2022/07/15 04:51:21;;;;;;;2.03;1.90;;;;;;;;;;5029489;28;20313;-79
2022/07/15 04:53:49;;;;;;;2.97;1.80;;;;;;;;;;5029653;28;20214;-78
2022/07/15 04:56:16;;;;;;;5.03;1.63;;;;;;;;;;5031018;28;20202;-79
2022/07/15 04:58:43;;;;;;;2.07;1.87;;;;;;;;;;5031064;28;20244;-79
2022/07/15 05:01:11;;;;;;;2.27;1.97;;;;;;;;;;5030564;28;20588;-79
2022/07/15 05:03:39;;;;;;;3.33;1.53;;;;;;;;;;5030970;28;20253;-79
2022/07/15 05:06:06;;;;;;;3.90;2.10;;;;;;;;;;5030813;28;20202;-79
2022/07/15 05:08:33;;;;;;;2.33;1.90;;;;;;;;;;5030682;28;20209;-78
2022/07/15 05:11:00;;;;;;;3.00;1.90;;;;;;;;;;5030690;28;20234;-78
2022/07/15 05:13:26;;;;;;;6.33;2.00;;;;;;;;;;5030441;28;20226;-78
2022/07/15 05:15:54;;;;;;;3.13;1.97;;;;;;;;;;5030683;28;20253;-79
2022/07/15 05:18:22;;;;;;;3.87;2.27;;;;;;;;;;5030823;28;20223;-79
2022/07/15 05:20:48;;;;;;;2.40;1.93;;;;;;;;;;5030112;28;20202;-78
2022/07/15 05:23:19;;;;;;;3.50;1.80;;;;;;;;;;5031081;28;20202;-78
2022/07/15 05:25:46;;;;;;;2.37;2.03;;;;;;;;;;5030660;28;20206;-79
2022/07/15 05:28:13;;;;;;;3.37;1.63;;;;;;;;;;5030354;28;20249;-79
2022/07/15 05:30:40;;;;;;;7.47;2.10;;;;;;;;;;5030702;28;20264;-79
2022/07/15 05:33:06;;;;;;;1.80;1.70;;;;;;;;;;5030595;28;20213;-79
2022/07/15 05:35:35;;;;;;;1.80;1.70;;;;;;;;;;5030469;28;20203;-79
2022/07/15 05:38:01;;;;;;;6.13;1.87;;;;;;;;;;5030672;28;20237;-79
2022/07/15 05:40:29;;;;;;;2.67;1.70;;;;;;;;;;5030140;28;20725;-79
2022/07/15 05:42:56;;;;;;;3.67;2.10;;;;;;;;;;5034526;28;20689;-78
2022/07/15 05:45:22;;;;;;;6.20;1.70;;;;;;;;;;5034438;28;20599;-79
2022/07/15 05:47:49;;;;;;;12.07;2.60;;;;;;;;;;5034290;28;20207;-79
2022/07/15 05:50:17;;;;;;;8.63;2.30;;;;;;;;;;5034489;28;20216;-79
2022/07/15 05:52:46;;;;;;;5.97;2.20;;;;;;;;;;5034294;28;20202;-78
2022/07/15 05:55:13;;;;;;;2.53;1.80;;;;;;;;;;5034126;28;20206;-80
2022/07/15 05:57:40;;;;;;;3.97;1.83;;;;;;;;;;5033882;28;20213;-78
2022/07/15 06:00:08;;;;;;;2.07;1.60;;;;;;;;;;5034104;28;20699;-77
2022/07/15 06:02:35;;;;;;;1.83;1.50;;;;;;;;;;5033980;28;20198;-78
2022/07/15 06:05:02;;;;;;;10.53;2.03;;;;;;;;;;5034213;28;20238;-78
2022/07/15 06:07:29;;;;;;;2.33;1.77;;;;;;;;;;5033855;28;20206;-77
2022/07/15 06:09:58;;;;;;;4.67;1.80;;;;;;;;;;5034209;28;20207;-76
2022/07/15 06:12:24;;;;;;;2.07;1.90;;;;;;;;;;5033719;28;20246;-77
2022/07/15 06:14:51;;;;;;;6.00;1.97;;;;;;;;;;5033969;28;20260;-77
2022/07/15 06:17:18;;;;;;;1.70;1.50;;;;;;;;;;5033475;28;20199;-77
2022/07/15 06:19:45;;;;;;;3.13;1.60;;;;;;;;;;5033706;28;20284;-77
2022/07/15 06:22:11;;;;;;;4.83;1.77;;;;;;;;;;5033704;28;20210;-77
2022/07/15 06:24:38;;;;;;;2.17;1.57;;;;;;;;;;5033582;28;20206;-77
2022/07/15 06:27:06;;;;;;;1.93;1.30;;;;;;;;;;5033752;28;20217;-77
2022/07/15 06:29:33;;;;;;;1.80;1.60;;;;;;;;;;5033682;28;20727;-77
2022/07/15 06:32:00;;;;;;;3.03;2.00;;;;;;;;;;5034049;28;20202;-79
2022/07/15 06:34:27;;;;;;;2.00;1.70;;;;;;;;;;5033905;28;20203;-79
2022/07/15 06:36:54;;;;;;;7.73;2.13;;;;;;;;;;5033380;28;20213;-80
2022/07/15 06:39:21;;;;;;;7.23;3.10;;;;;;;;;;5033440;28;20227;-79
2022/07/15 06:41:48;;;;;;;7.53;2.83;;;;;;;;;;5033463;28;20237;-79
2022/07/15 06:44:16;;;;;;;3.10;2.00;;;;;;;;;;5033169;28;20582;-80
2022/07/15 06:46:43;;;;;;;3.63;2.13;;;;;;;;;;5033199;28;20234;-80
2022/07/15 06:49:10;;;;;;;3.60;2.70;;;;;;;;;;5033622;28;20203;-79
2022/07/15 06:51:37;;;;;;;6.60;3.20;;;;;;;;;;5033175;28;20265;-79
2022/07/15 06:54:03;;;;;;;7.37;3.13;;;;;;;;;;5032526;28;20206;-79
2022/07/15 06:56:30;;;;;;;3.97;2.10;;;;;;;;;;5033108;28;20206;-79
2022/07/15 06:58:57;;;;;;;8.63;3.63;;;;;;;;;;5032620;28;20230;-81
2022/07/15 07:01:25;;;;;;;2.57;2.37;;;;;;;;;;5032995;28;20202;-78
2022/07/15 07:03:52;;;;;;;3.23;2.17;;;;;;;;;;5031554;28;20211;-79
2022/07/15 07:06:19;;;;;;;2.13;1.93;;;;;;;;;;5032333;28;20206;-78
2022/07/15 07:08:49;;;;;;;4.50;1.83;;;;;;;;;;5033102;28;20214;-78
2022/07/15 07:11:17;;;;;;;2.97;1.80;;;;;;;;;;5032697;28;20226;-78
2022/07/15 07:13:44;;;;;;;2.73;1.40;;;;;;;;;;5033274;28;20632;-78
2022/07/15 07:16:10;;;;;;;4.33;2.00;;;;;;;;;;5030554;28;20723;-79
2022/07/15 07:18:39;;;;;;;3.10;2.30;;;;;;;;;;5032715;28;20226;-79
2022/07/15 07:21:06;;;;;;;3.43;1.50;;;;;;;;;;5032482;28;20684;-81
2022/07/15 07:23:34;;;;;;;2.67;1.50;;;;;;;;;;5030971;28;20198;-80
2022/07/15 07:26:03;;;;;;;6.27;1.90;;;;;;;;;;5030947;28;20257;-79
2022/07/15 07:28:29;;;;;;;3.22;2.28;;;;;;;;;;5031402;28;20292;-79
2022/07/15 07:30:56;;;;;;;2.43;1.87;;;;;;;;;;5031457;28;20211;-79
2022/07/15 07:33:23;;;;;;;3.05;1.83;;;;;;;;;;5032783;28;20206;-80
2022/07/15 07:35:52;;;;;;;3.10;1.55;;;;;;;;;;5032123;28;20206;-79
2022/07/15 07:38:21;;;;;;;3.25;1.60;;;;;;;;;;5032102;28;20634;-79
2022/07/15 07:40:48;;;;;;;3.67;1.77;;;;;;;;;;5032619;28;20573;-79
2022/07/15 07:43:15;;;;;;;2.00;1.35;;;;;;;;;;5032323;28;20234;-79
2022/07/15 07:45:42;;;;;;;2.65;1.60;;;;;;;;;;5031937;28;20199;-80
2022/07/15 07:48:09;;;;;;;6.18;1.50;;;;;;;;;;5032683;28;20279;-78
2022/07/15 07:50:35;;;;;;;4.03;1.85;;;;;;;;;;5032105;28;20198;-77
2022/07/15 07:53:04;;;;;;;3.10;1.45;;;;;;;;;;5032229;28;20620;-78
2022/07/15 07:55:30;;;;;;;2.35;1.60;;;;;;;;;;5031782;28;20213;-77
2022/07/15 07:57:58;;;;;;;3.30;1.50;;;;;;;;;;5031963;28;20202;-77
2022/07/15 08:00:26;;;;;;;2.65;1.90;;;;;;;;;;5031996;28;20624;-78
2022/07/15 08:02:54;;;;;;;1.70;1.60;;;;;;;;;;5031845;28;20202;-78
2022/07/15 08:05:21;;;;;;;4.57;2.05;;;;;;;;;;5031546;28;20199;-78
2022/07/15 08:07:48;;;;;;;3.38;2.17;;;;;;;;;;5031825;28;20213;-77
2022/07/15 08:10:18;;;;;;;5.45;1.80;;;;;;;;;;5032051;28;20202;-77
2022/07/15 08:12:46;;;;;;;3.00;1.45;;;;;;;;;;5031782;28;20227;-77
2022/07/15 08:15:15;;;;;;;2.10;1.90;;;;;;;;;;5031368;28;20218;-78
2022/07/15 08:17:42;;;;;;;3.38;1.92;;;;;;;;;;5031702;28;20684;-77
2022/07/15 08:20:10;;;;;;;2.97;1.80;;;;;;;;;;5031493;28;20728;-79
2022/07/15 08:22:37;;;;;;;2.97;1.70;;;;;;;;;;5031384;28;20670;-78
2022/07/15 08:25:06;;;;;;;5.00;2.10;;;;;;;;;;5031511;28;20601;-78
2022/07/15 08:27:34;;;;;;;1.88;1.48;;;;;;;;;;5031821;28;20215;-78
2022/07/15 08:30:00;;;;;;;3.08;1.70;;;;;;;;;;5031579;28;20704;-78
2022/07/15 08:32:27;;;;;;;3.80;1.70;;;;;;;;;;5031328;28;20206;-78
2022/07/15 08:34:54;;;;;;;2.95;1.80;;;;;;;;;;5031081;28;20217;-78
2022/07/15 08:37:21;;;;;;;2.13;1.77;;;;;;;;;;5031557;28;20198;-78
2022/07/15 08:39:48;;;;;;;1.98;1.60;;;;;;;;;;5031492;28;20234;-78
2022/07/15 08:42:14;;;;;;;5.70;1.70;;;;;;;;;;5013489;28;20206;-78
2022/07/15 08:44:43;;;;;;;3.95;2.13;;;;;;;;;;5031518;28;20199;-78
2022/07/15 08:47:10;;;;;;;4.20;1.90;;;;;;;;;;5030828;28;20734;-78
2022/07/15 08:49:40;;;;;;;2.42;1.73;;;;;;;;;;5031319;28;20198;-78
2022/07/15 08:52:07;;;;;;;3.22;2.10;;;;;;;;;;5030806;28;20238;-78
2022/07/15 08:54:34;;;;;;;2.53;1.70;;;;;;;;;;5030997;28;20234;-79
2022/07/15 08:57:01;;;;;;;2.47;1.52;;;;;;;;;;5030902;28;20203;-78
2022/07/15 08:59:28;;;;;;;2.42;2.05;;;;;;;;;;5030776;28;20222;-77
2022/07/15 09:01:56;;;;;;;3.33;1.90;;;;;;;;;;5030547;28;20203;-76
2022/07/15 09:04:23;;;;;;;1.77;1.67;;;;;;;;;;5031001;28;20211;-78
2022/07/15 09:06:50;;;;;;;3.22;2.15;;;;;;;;;;5030667;28;20203;-83
2022/07/15 09:09:31;;;;;;;2.75;2.45;;;;;;;;;;5031165;28;20221;-78
2022/07/15 09:12:03;;;;;;;4.15;1.80;;;;;;;;;;5030874;28;20232;-78
2022/07/15 09:14:31;;;;;;;2.75;1.60;;;;;;;;;;5031045;28;20240;-78
2022/07/15 09:17:08;;;;;;;4.22;2.38;;;;;;;;;;5030418;28;20206;-76
2022/07/15 09:19:57;;;;;;;1.83;1.70;;;;;;;;;;5029694;28;20225;-76
2022/07/15 09:22:24;;;;;;;1.75;1.52;;;;;;;;;;5030400;28;20198;-77
2022/07/15 09:24:52;;;;;;;3.20;1.90;;;;;;;;;;5030660;28;20203;-76
2022/07/15 09:27:35;;;;;;;2.65;1.70;;;;;;;;;;5030547;28;20210;-78
2022/07/15 09:36:04;;;;;;;1.70;1.60;;;;;;;;;;5029062;28;20344;-77
2022/07/15 09:38:33;;;;;;;1.77;1.67;;;;;;;;;;5028712;28;20217;-77
2022/07/15 09:41:01;;;;;;;6.25;1.85;;;;;;;;;;5028180;28;20678;-77
2022/07/15 09:43:28;;;;;;;2.25;2.05;;;;;;;;;;5028662;28;20202;-78
2022/07/15 09:45:59;;;;;;;2.00;1.63;;;;;;;;;;5028801;28;20225;-77
2022/07/15 09:48:29;;;;;;;4.25;1.80;;;;;;;;;;5028591;28;20815;-77
2022/07/15 09:51:00;;;;;;;2.97;2.08;;;;;;;;;;5030033;28;20689;-77
2022/07/15 09:53:27;;;;;;;2.95;2.35;;;;;;;;;;5028333;28;20262;-77
2022/07/15 09:55:55;;;;;;;2.78;1.55;;;;;;;;;;5030003;28;20210;-77
2022/07/15 09:58:22;;;;;;;5.00;1.90;;;;;;;;;;5026519;28;20273;-78
2022/07/15 10:00:48;;;;;;;2.20;1.77;;;;;;;;;;5026415;28;21271;-78
2022/07/15 10:03:17;;;;;;;1.63;1.52;;;;;;;;;;5028602;28;20199;-77
2022/07/15 10:05:46;;;;;;;1.75;1.58;;;;;;;;;;5027517;28;20207;-77
2022/07/15 10:08:15;;;;;;;2.40;1.50;;;;;;;;;;5028013;28;20211;-78
2022/07/15 10:10:42;;;;;;;3.00;1.50;;;;;;;;;;5027857;28;20198;-80
2022/07/15 10:13:18;;;;;;;3.47;2.00;;;;;;;;;;5028962;28;20203;-80
2022/07/15 10:15:48;;;;;;;2.72;1.70;;;;;;;;;;5028380;28;20213;-80
2022/07/15 10:18:35;;;;;;;4.10;1.70;;;;;;;;;;5028488;28;20199;-80
2022/07/15 10:21:15;;;;;;;3.83;1.75;;;;;;;;;;5030035;28;20238;-80
2022/07/15 10:23:54;;;;;;;4.05;1.75;;;;;;;;;;5030426;28;20202;-80
2022/07/15 10:26:45;;;;;;;5.15;2.35;;;;;;;;;;5028919;28;20212;-79
2022/07/15 10:29:13;;;;;;;3.28;1.70;;;;;;;;;;5033225;28;20276;-81
2022/07/15 10:31:41;;;;;;;2.15;1.50;;;;;;;;;;5033261;28;20673;-80
2022/07/15 10:34:20;;;;;;;1.92;1.75;;;;;;;;;;5033826;28;20241;-79
2022/07/15 10:37:04;;;;;;;2.15;1.50;;;;;;;;;;5033404;28;20206;-79
2022/07/15 10:39:49;;;;;;;2.95;2.03;;;;;;;;;;5033377;28;20323;-79
2022/07/15 10:42:17;;;;;;;1.90;1.75;;;;;;;;;;5033747;28;20286;-80
2022/07/15 10:45:03;;;;;;;1.80;1.65;;;;;;;;;;5015164;28;20253;-80
2022/07/15 10:47:30;;;;;;;2.47;1.65;;;;;;;;;;5032420;28;20630;-79
2022/07/15 10:49:57;;;;;;;1.50;1.40;;;;;;;;;;5032371;28;20210;-79
2022/07/15 10:52:27;;;;;;;3.90;1.88;;;;;;;;;;5032383;28;20210;-79
2022/07/15 10:55:04;;;;;;;2.17;1.65;;;;;;;;;;5032730;28;20657;-79
2022/07/15 10:57:58;;;;;;;3.83;1.33;;;;;;;;;;5032030;28;20260;-77
2022/07/15 11:00:30;;;;;;;1.30;1.20;;;;;;;;;;4985432;28;20237;-77
2022/07/15 11:03:07;;;;;;;1.55;1.45;;;;;;;;;;5032463;28;20199;-75
2022/07/15 11:05:34;;;;;;;1.60;1.42;;;;;;;;;;5031615;28;20194;-77
2022/07/15 11:08:41;;;;;;;1.90;1.30;;;;;;;;;;5031579;28;20210;-78
2022/07/15 11:11:41;;;;;;;1.40;1.30;;;;;;;;;;5030573;28;20254;-78
2022/07/15 11:14:41;;;;;;;3.05;1.48;;;;;;;;;;5032789;28;20214;-78
2022/07/15 11:17:08;;;;;;;2.47;1.50;;;;;;;;;;5032767;28;20214;-79
2022/07/15 11:19:36;;;;;;;1.65;1.55;;;;;;;;;;5032706;28;20727;-78
2022/07/15 11:22:02;;;;;;;1.40;1.30;;;;;;;;;;5032512;28;20195;-78
2022/07/15 11:24:31;;;;;;;4.25;1.80;;;;;;;;;;5031677;28;20195;-78
2022/07/15 11:27:00;;;;;;;5.55;1.83;;;;;;;;;;5031207;28;20226;-78
2022/07/15 11:29:41;;;;;;;1.35;1.13;;;;;;;;;;5031343;28;20198;-78
2022/07/15 11:32:08;;;;;;;1.58;1.48;;;;;;;;;;5032051;28;20205;-78
2022/07/15 11:34:43;;;;;;;4.03;1.90;;;;;;;;;;5032842;28;20238;-78
2022/07/15 11:37:12;;;;;;;4.32;1.60;;;;;;;;;;5032155;28;20297;-78
2022/07/15 11:39:40;;;;;;;1.42;1.35;;;;;;;;;;5030392;28;20222;-78
2022/07/15 11:45:03;;;;;;;2.38;1.70;;;;;;;;;;4990235;28;20211;-78
2022/07/15 11:47:30;;;;;;;2.72;1.70;;;;;;;;;;5021491;28;20198;-77
2022/07/15 11:50:00;;;;;;;1.50;1.40;;;;;;;;;;5031561;28;20210;-78
2022/07/15 11:52:27;;;;;;;1.92;1.55;;;;;;;;;;5031292;28;20210;-78
2022/07/15 11:54:56;;;;;;;4.55;1.58;;;;;;;;;;5031493;28;20198;-79
2022/07/15 11:57:24;;;;;;;4.00;1.45;;;;;;;;;;5031510;28;20210;-79
2022/07/15 11:59:53;;;;;;;4.82;1.85;;;;;;;;;;5030859;28;20779;-79
2022/07/15 12:02:20;;;;;;;5.32;1.50;;;;;;;;;;5030358;28;20203;-79
2022/07/15 12:04:47;;;;;;;1.45;1.40;;;;;;;;;;5030946;28;20198;-78
2022/07/15 12:07:14;;;;;;;2.78;1.70;;;;;;;;;;5030554;28;20207;-79
2022/07/15 12:09:41;;;;;;;1.25;1.25;;;;;;;;;;5030840;28;20202;-79
2022/07/15 12:12:09;;;;;;;3.47;2.50;;;;;;;;;;5030633;28;20234;-78
2022/07/15 12:14:37;;;;;;;2.60;1.60;;;;;;;;;;5031168;28;20206;-78
2022/07/15 12:17:04;;;;;;;1.27;1.17;;;;;;;;;;5031839;28;20222;-78
2022/07/15 12:19:32;;;;;;;1.50;1.40;;;;;;;;;;5031746;28;20203;-78
2022/07/15 12:22:00;;;;;;;2.25;1.90;;;;;;;;;;5031058;28;20207;-78
2022/07/15 12:24:37;;;;;;;2.28;1.83;;;;;;;;;;5031674;28;20213;-78
2022/07/15 12:27:04;;;;;;;1.25;1.25;;;;;;;;;;5031400;28;20260;-78
2022/07/15 12:29:33;;;;;;;9.38;2.42;;;;;;;;;;5031621;28;20214;-78
2022/07/15 12:32:02;;;;;;;1.73;1.42;;;;;;;;;;5031134;28;20195;-78
2022/07/15 12:34:49;;;;;;;4.97;1.90;;;;;;;;;;5031366;28;20597;-78
2022/07/15 12:37:20;;;;;;;1.30;1.20;;;;;;;;;;5031380;28;20198;-79
2022/07/15 12:40:00;;;;;;;1.50;1.40;;;;;;;;;;5031305;28;20207;-79
2022/07/15 12:42:30;;;;;;;2.70;1.67;;;;;;;;;;5030709;28;20206;-78
2022/07/15 12:45:11;;;;;;;3.00;1.40;;;;;;;;;;5031244;28;20216;-78
2022/07/15 12:47:40;;;;;;;2.03;1.50;;;;;;;;;;5031251;28;20205;-78
2022/07/15 12:50:07;;;;;;;1.58;1.48;;;;;;;;;;5030908;28;20209;-78
2022/07/15 12:52:36;;;;;;;1.52;1.42;;;;;;;;;;5030825;28;20211;-77
2022/07/15 12:55:14;;;;;;;2.72;1.73;;;;;;;;;;5030929;28;20298;-79
2022/07/15 12:57:42;;;;;;;1.30;1.30;;;;;;;;;;5031172;28;20561;-78
2022/07/15 13:00:13;;;;;;;1.60;1.50;;;;;;;;;;5030959;28;20727;-78
2022/07/15 13:02:58;;;;;;;2.65;1.33;;;;;;;;;;5030852;28;20198;-78
2022/07/15 13:05:25;;;;;;;3.22;1.92;;;;;;;;;;5030973;28;20600;-78
2022/07/15 13:07:52;;;;;;;3.33;1.33;;;;;;;;;;5030758;28;20204;-79
2022/07/15 13:10:19;;;;;;;1.55;1.45;;;;;;;;;;5030441;28;20215;-79
2022/07/15 13:12:46;;;;;;;3.33;1.70;;;;;;;;;;5030872;28;20257;-79
2022/07/15 13:15:14;;;;;;;5.63;1.73;;;;;;;;;;5031101;28;20209;-79
2022/07/15 13:17:41;;;;;;;1.67;1.55;;;;;;;;;;5031027;28;20230;-78
2022/07/15 13:20:09;;;;;;;3.90;1.75;;;;;;;;;;5030612;28;20199;-79
2022/07/15 13:22:36;;;;;;;1.48;1.38;;;;;;;;;;5030626;28;20214;-79
2022/07/15 13:25:03;;;;;;;1.45;1.15;;;;;;;;;;5030854;28;20211;-78
2022/07/15 13:27:30;;;;;;;3.00;1.40;;;;;;;;;;5030707;28;20207;-78
2022/07/15 13:29:56;;;;;;;1.98;1.60;;;;;;;;;;5030400;28;20203;-79
2022/07/15 13:32:25;;;;;;;2.83;1.60;;;;;;;;;;5030640;28;20202;-79
2022/07/15 13:34:52;;;;;;;2.15;1.52;;;;;;;;;;5030480;28;20203;-78
2022/07/15 13:37:19;;;;;;;1.60;1.50;;;;;;;;;;5030402;28;20246;-79
2022/07/15 13:39:46;;;;;;;1.85;1.25;;;;;;;;;;5030591;28;20202;-78
2022/07/15 13:42:12;;;;;;;1.50;1.40;;;;;;;;;;5030256;28;20237;-78
2022/07/15 13:44:39;;;;;;;4.22;1.65;;;;;;;;;;5030646;28;20203;-78
2022/07/15 13:47:06;;;;;;;3.63;1.40;;;;;;;;;;5030620;28;20588;-78
2022/07/15 13:52:18;;;;;;;5.18;1.83;;;;;;;;;;5030463;28;20712;-79
2022/07/15 13:54:45;;;;;;;2.13;1.48;;;;;;;;;;5030463;28;20698;-78
2022/07/15 13:57:12;;;;;;;4.97;1.45;;;;;;;;;;5030328;28;20207;-77
2022/07/15 13:59:38;;;;;;;2.92;1.42;;;;;;;;;;5030108;28;20203;-78
2022/07/15 14:02:05;;;;;;;3.17;1.70;;;;;;;;;;5030933;28;20226;-78
2022/07/15 14:04:36;;;;;;;3.75;1.70;;;;;;;;;;5034523;28;20601;-79
2022/07/15 14:07:02;;;;;;;1.42;1.33;;;;;;;;;;5034036;28;20203;-79
2022/07/15 14:09:29;;;;;;;1.48;1.38;;;;;;;;;;5034202;28;20213;-78
2022/07/15 14:11:57;;;;;;;2.28;1.20;;;;;;;;;;5033569;28;20743;-79
2022/07/15 14:14:23;;;;;;;1.20;1.10;;;;;;;;;;5034048;28;20292;-79
2022/07/15 14:16:50;;;;;;;3.03;1.20;;;;;;;;;;5034209;28;20292;-79
2022/07/15 14:19:17;;;;;;;1.65;1.45;;;;;;;;;;5033972;28;20202;-79
2022/07/15 14:21:45;;;;;;;1.23;1.13;;;;;;;;;;5033777;28;20729;-80
2022/07/15 14:24:12;;;;;;;2.15;2.00;;;;;;;;;;5034022;28;20203;-79
2022/07/15 14:26:39;;;;;;;1.55;1.45;;;;;;;;;;5033600;28;20202;-79
2022/07/15 14:29:06;;;;;;;3.60;1.85;;;;;;;;;;5033772;28;20207;-79
2022/07/15 14:31:33;;;;;;;6.63;1.45;;;;;;;;;;5033781;28;20206;-77
2022/07/15 14:33:59;;;;;;;2.10;2.00;;;;;;;;;;5033478;28;20203;-79
2022/07/15 14:36:26;;;;;;;1.83;1.73;;;;;;;;;;5033488;28;20712;-79
2022/07/15 14:38:54;;;;;;;4.20;1.70;;;;;;;;;;5033600;28;20681;-79
2022/07/15 14:41:21;;;;;;;3.85;1.55;;;;;;;;;;5033528;28;20237;-79
2022/07/15 14:43:48;;;;;;;1.88;1.77;;;;;;;;;;5033506;28;20697;-78
2022/07/15 14:46:15;;;;;;;1.60;1.50;;;;;;;;;;5033280;28;20198;-77
2022/07/15 14:48:41;;;;;;;1.60;1.48;;;;;;;;;;5033257;28;20214;-79
2022/07/15 14:51:08;;;;;;;2.20;1.60;;;;;;;;;;5033142;28;20218;-77
2022/07/15 14:53:38;;;;;;;9.93;2.30;;;;;;;;;;5033370;28;20210;-79
2022/07/15 14:56:07;;;;;;;1.48;1.38;;;;;;;;;;5032814;28;20293;-77
2022/07/15 14:58:33;;;;;;;2.60;1.63;;;;;;;;;;5033657;28;20280;-77
2022/07/15 15:01:00;;;;;;;1.38;1.27;;;;;;;;;;5033339;28;20226;-77
2022/07/15 15:03:27;;;;;;;4.07;1.48;;;;;;;;;;5033258;28;20217;-77
2022/07/15 15:05:54;;;;;;;1.48;1.38;;;;;;;;;;5032722;28;20218;-77
2022/07/15 15:08:23;;;;;;;2.03;1.92;;;;;;;;;;5033431;28;20202;-77
2022/07/15 15:10:50;;;;;;;1.40;1.30;;;;;;;;;;5032733;28;20226;-77
2022/07/15 15:13:18;;;;;;;1.60;1.50;;;;;;;;;;5032732;28;20209;-77